sensor_id;sensor_type;location;lat;lon;timestamp;P1;durP1;ratioP1;P2;durP2;ratioP2
40162;SDS011;25881;47.462;19.304;2023-11-21T00:01:18;41.53;;;27.33;;
40162;SDS011;25881;47.462;19.304;2023-11-21T00:03:44;34.17;;;24.23;;
40162;SDS011;25881;47.462;19.304;2023-11-21T00:06:09;35.60;;;24.67;;
40162;SDS011;25881;47.462;19.304;2023-11-21T00:08:35;36.45;;;24.30;;
40162;SDS011;25881;47.462;19.304;2023-11-21T00:11:00;34.08;;;23.15;;
40162;SDS011;25881;47.462;19.304;2023-11-21T00:13:26;34.40;;;24.50;;
40162;SDS011;25881;47.462;19.304;2023-11-21T00:15:51;35.53;;;22.48;;
40162;SDS011;25881;47.462;19.304;2023-11-21T00:18:16;43.63;;;26.80;;
40162;SDS011;25881;47.462;19.304;2023-11-21T00:20:42;36.03;;;22.43;;
40162;SDS011;25881;47.462;19.304;2023-11-21T00:23:07;34.83;;;24.50;;
40162;SDS011;25881;47.462;19.304;2023-11-21T00:25:32;35.07;;;24.17;;
40162;SDS011;25881;47.462;19.304;2023-11-21T00:27:58;33.05;;;22.55;;
40162;SDS011;25881;47.462;19.304;2023-11-21T00:30:23;28.17;;;20.43;;
40162;SDS011;25881;47.462;19.304;2023-11-21T00:32:48;29.33;;;21.83;;
40162;SDS011;25881;47.462;19.304;2023-11-21T00:35:13;31.47;;;21.93;;
40162;SDS011;25881;47.462;19.304;2023-11-21T00:37:39;32.47;;;21.17;;
40162;SDS011;25881;47.462;19.304;2023-11-21T00:40:04;27.93;;;20.43;;
40162;SDS011;25881;47.462;19.304;2023-11-21T00:42:30;28.23;;;20.05;;
40162;SDS011;25881;47.462;19.304;2023-11-21T00:44:57;32.45;;;21.85;;
40162;SDS011;25881;47.462;19.304;2023-11-21T00:47:22;27.00;;;19.67;;
40162;SDS011;25881;47.462;19.304;2023-11-21T00:49:47;33.08;;;20.98;;
40162;SDS011;25881;47.462;19.304;2023-11-21T00:52:14;35.55;;;22.83;;
40162;SDS011;25881;47.462;19.304;2023-11-21T00:54:39;29.38;;;20.60;;
40162;SDS011;25881;47.462;19.304;2023-11-21T00:57:04;28.70;;;20.70;;
40162;SDS011;25881;47.462;19.304;2023-11-21T00:59:30;33.17;;;22.53;;
40162;SDS011;25881;47.462;19.304;2023-11-21T01:01:55;32.58;;;22.75;;
40162;SDS011;25881;47.462;19.304;2023-11-21T01:04:21;32.50;;;21.83;;
40162;SDS011;25881;47.462;19.304;2023-11-21T01:06:46;29.77;;;21.40;;
40162;SDS011;25881;47.462;19.304;2023-11-21T01:09:12;33.38;;;22.08;;
40162;SDS011;25881;47.462;19.304;2023-11-21T01:11:37;31.77;;;21.83;;
40162;SDS011;25881;47.462;19.304;2023-11-21T01:14:04;35.78;;;22.10;;
40162;SDS011;25881;47.462;19.304;2023-11-21T01:16:29;35.08;;;22.70;;
40162;SDS011;25881;47.462;19.304;2023-11-21T01:18:54;34.77;;;22.17;;
40162;SDS011;25881;47.462;19.304;2023-11-21T01:21:20;31.70;;;22.87;;
40162;SDS011;25881;47.462;19.304;2023-11-21T01:23:45;37.87;;;25.07;;
40162;SDS011;25881;47.462;19.304;2023-11-21T01:26:10;33.43;;;23.17;;
40162;SDS011;25881;47.462;19.304;2023-11-21T01:28:35;34.23;;;23.80;;
40162;SDS011;25881;47.462;19.304;2023-11-21T01:31:01;37.95;;;23.50;;
40162;SDS011;25881;47.462;19.304;2023-11-21T01:33:26;33.70;;;21.57;;
40162;SDS011;25881;47.462;19.304;2023-11-21T01:35:51;33.67;;;21.87;;
40162;SDS011;25881;47.462;19.304;2023-11-21T01:38:19;31.85;;;21.65;;
40162;SDS011;25881;47.462;19.304;2023-11-21T01:40:44;30.00;;;21.55;;
40162;SDS011;25881;47.462;19.304;2023-11-21T01:43:10;35.00;;;22.67;;
40162;SDS011;25881;47.462;19.304;2023-11-21T01:45:35;34.15;;;21.10;;
40162;SDS011;25881;47.462;19.304;2023-11-21T01:48:00;33.13;;;22.23;;
40162;SDS011;25881;47.462;19.304;2023-11-21T01:50:27;32.53;;;22.02;;
40162;SDS011;25881;47.462;19.304;2023-11-21T01:52:53;31.58;;;20.38;;
40162;SDS011;25881;47.462;19.304;2023-11-21T01:55:19;28.77;;;20.80;;
40162;SDS011;25881;47.462;19.304;2023-11-21T01:57:45;35.83;;;19.55;;
40162;SDS011;25881;47.462;19.304;2023-11-21T02:00:11;27.75;;;19.15;;
40162;SDS011;25881;47.462;19.304;2023-11-21T02:02:44;27.95;;;19.35;;
40162;SDS011;25881;47.462;19.304;2023-11-21T02:05:16;30.30;;;19.08;;
40162;SDS011;25881;47.462;19.304;2023-11-21T02:07:45;26.90;;;18.70;;
40162;SDS011;25881;47.462;19.304;2023-11-21T02:10:12;27.42;;;18.13;;
40162;SDS011;25881;47.462;19.304;2023-11-21T02:12:39;27.25;;;19.05;;
40162;SDS011;25881;47.462;19.304;2023-11-21T02:15:05;32.75;;;19.65;;
40162;SDS011;25881;47.462;19.304;2023-11-21T02:17:35;34.22;;;21.02;;
40162;SDS011;25881;47.462;19.304;2023-11-21T02:20:00;27.88;;;19.60;;
40162;SDS011;25881;47.462;19.304;2023-11-21T02:22:26;29.70;;;19.97;;
40162;SDS011;25881;47.462;19.304;2023-11-21T02:24:53;37.22;;;22.58;;
40162;SDS011;25881;47.462;19.304;2023-11-21T02:27:18;33.20;;;22.92;;
40162;SDS011;25881;47.462;19.304;2023-11-21T02:32:12;32.08;;;22.55;;
40162;SDS011;25881;47.462;19.304;2023-11-21T02:34:37;35.73;;;23.63;;
40162;SDS011;25881;47.462;19.304;2023-11-21T02:37:04;39.08;;;24.65;;
40162;SDS011;25881;47.462;19.304;2023-11-21T02:39:30;36.15;;;24.73;;
40162;SDS011;25881;47.462;19.304;2023-11-21T02:41:56;37.53;;;25.15;;
40162;SDS011;25881;47.462;19.304;2023-11-21T02:44:22;37.50;;;25.52;;
40162;SDS011;25881;47.462;19.304;2023-11-21T02:46:47;39.00;;;25.50;;
40162;SDS011;25881;47.462;19.304;2023-11-21T02:49:12;33.97;;;23.45;;
40162;SDS011;25881;47.462;19.304;2023-11-21T02:51:38;34.05;;;23.42;;
40162;SDS011;25881;47.462;19.304;2023-11-21T02:54:04;41.28;;;24.27;;
40162;SDS011;25881;47.462;19.304;2023-11-21T02:56:31;38.90;;;26.73;;
40162;SDS011;25881;47.462;19.304;2023-11-21T02:58:58;43.65;;;27.75;;
40162;SDS011;25881;47.462;19.304;2023-11-21T03:01:24;49.97;;;29.88;;
40162;SDS011;25881;47.462;19.304;2023-11-21T03:03:50;40.63;;;26.60;;
40162;SDS011;25881;47.462;19.304;2023-11-21T03:06:18;37.78;;;25.80;;
40162;SDS011;25881;47.462;19.304;2023-11-21T03:08:43;41.35;;;28.17;;
40162;SDS011;25881;47.462;19.304;2023-11-21T03:11:09;41.30;;;26.87;;
40162;SDS011;25881;47.462;19.304;2023-11-21T03:13:34;40.47;;;26.42;;
40162;SDS011;25881;47.462;19.304;2023-11-21T03:15:59;39.20;;;24.37;;
40162;SDS011;25881;47.462;19.304;2023-11-21T03:18:24;39.22;;;26.05;;
40162;SDS011;25881;47.462;19.304;2023-11-21T03:20:51;35.30;;;23.33;;
40162;SDS011;25881;47.462;19.304;2023-11-21T03:23:17;34.75;;;22.88;;
40162;SDS011;25881;47.462;19.304;2023-11-21T03:25:42;33.53;;;21.67;;
40162;SDS011;25881;47.462;19.304;2023-11-21T03:28:07;34.63;;;21.80;;
40162;SDS011;25881;47.462;19.304;2023-11-21T03:30:33;30.13;;;19.35;;
40162;SDS011;25881;47.462;19.304;2023-11-21T03:32:58;29.90;;;19.70;;
40162;SDS011;25881;47.462;19.304;2023-11-21T03:35:24;29.30;;;18.50;;
40162;SDS011;25881;47.462;19.304;2023-11-21T03:37:49;29.33;;;19.35;;
40162;SDS011;25881;47.462;19.304;2023-11-21T03:40:14;26.20;;;18.87;;
40162;SDS011;25881;47.462;19.304;2023-11-21T03:42:40;27.35;;;17.98;;
40162;SDS011;25881;47.462;19.304;2023-11-21T03:45:06;26.10;;;17.77;;
40162;SDS011;25881;47.462;19.304;2023-11-21T03:47:31;24.23;;;17.58;;
40162;SDS011;25881;47.462;19.304;2023-11-21T03:49:56;29.45;;;17.85;;
40162;SDS011;25881;47.462;19.304;2023-11-21T03:52:22;24.43;;;17.37;;
40162;SDS011;25881;47.462;19.304;2023-11-21T03:54:47;25.40;;;16.90;;
40162;SDS011;25881;47.462;19.304;2023-11-21T03:57:12;28.67;;;17.40;;
40162;SDS011;25881;47.462;19.304;2023-11-21T03:59:40;29.67;;;17.60;;
40162;SDS011;25881;47.462;19.304;2023-11-21T04:02:06;26.15;;;17.73;;
40162;SDS011;25881;47.462;19.304;2023-11-21T04:04:32;25.55;;;17.10;;
40162;SDS011;25881;47.462;19.304;2023-11-21T04:06:58;24.77;;;16.73;;
40162;SDS011;25881;47.462;19.304;2023-11-21T04:09:23;23.37;;;16.60;;
40162;SDS011;25881;47.462;19.304;2023-11-21T04:11:50;23.73;;;16.10;;
40162;SDS011;25881;47.462;19.304;2023-11-21T04:14:15;24.15;;;16.05;;
40162;SDS011;25881;47.462;19.304;2023-11-21T04:16:40;21.90;;;16.07;;
40162;SDS011;25881;47.462;19.304;2023-11-21T04:19:06;24.92;;;16.10;;
40162;SDS011;25881;47.462;19.304;2023-11-21T04:21:31;25.73;;;16.77;;
40162;SDS011;25881;47.462;19.304;2023-11-21T04:23:58;23.23;;;15.77;;
40162;SDS011;25881;47.462;19.304;2023-11-21T04:26:23;22.37;;;15.23;;
40162;SDS011;25881;47.462;19.304;2023-11-21T04:28:48;26.63;;;17.27;;
40162;SDS011;25881;47.462;19.304;2023-11-21T04:31:13;30.67;;;19.80;;
40162;SDS011;25881;47.462;19.304;2023-11-21T04:33:39;33.95;;;19.98;;
40162;SDS011;25881;47.462;19.304;2023-11-21T04:36:04;32.40;;;18.67;;
40162;SDS011;25881;47.462;19.304;2023-11-21T04:38:29;24.02;;;17.08;;
40162;SDS011;25881;47.462;19.304;2023-11-21T04:40:55;27.13;;;17.80;;
40162;SDS011;25881;47.462;19.304;2023-11-21T04:43:20;30.40;;;16.93;;
40162;SDS011;25881;47.462;19.304;2023-11-21T04:45:45;30.37;;;19.77;;
40162;SDS011;25881;47.462;19.304;2023-11-21T04:48:10;25.00;;;17.67;;
40162;SDS011;25881;47.462;19.304;2023-11-21T04:50:35;34.53;;;18.50;;
40162;SDS011;25881;47.462;19.304;2023-11-21T04:53:01;28.17;;;17.77;;
40162;SDS011;25881;47.462;19.304;2023-11-21T04:55:26;29.87;;;17.27;;
40162;SDS011;25881;47.462;19.304;2023-11-21T04:57:53;24.85;;;16.70;;
40162;SDS011;25881;47.462;19.304;2023-11-21T05:00:18;31.08;;;17.45;;
40162;SDS011;25881;47.462;19.304;2023-11-21T05:02:43;30.55;;;18.48;;
40162;SDS011;25881;47.462;19.304;2023-11-21T05:05:09;25.98;;;16.88;;
40162;SDS011;25881;47.462;19.304;2023-11-21T05:07:35;29.90;;;18.73;;
40162;SDS011;25881;47.462;19.304;2023-11-21T05:10:00;28.30;;;17.27;;
40162;SDS011;25881;47.462;19.304;2023-11-21T05:12:31;28.70;;;17.05;;
40162;SDS011;25881;47.462;19.304;2023-11-21T05:14:58;25.48;;;16.67;;
40162;SDS011;25881;47.462;19.304;2023-11-21T05:17:23;25.27;;;16.67;;
40162;SDS011;25881;47.462;19.304;2023-11-21T05:19:48;24.40;;;16.20;;
40162;SDS011;25881;47.462;19.304;2023-11-21T05:22:14;29.83;;;17.20;;
40162;SDS011;25881;47.462;19.304;2023-11-21T05:24:39;28.50;;;18.00;;
40162;SDS011;25881;47.462;19.304;2023-11-21T05:27:05;26.45;;;17.60;;
40162;SDS011;25881;47.462;19.304;2023-11-21T05:29:30;27.58;;;18.35;;
40162;SDS011;25881;47.462;19.304;2023-11-21T05:31:55;25.73;;;17.73;;
40162;SDS011;25881;47.462;19.304;2023-11-21T05:34:20;30.87;;;18.17;;
40162;SDS011;25881;47.462;19.304;2023-11-21T05:36:48;23.75;;;16.73;;
40162;SDS011;25881;47.462;19.304;2023-11-21T05:39:13;25.60;;;16.50;;
40162;SDS011;25881;47.462;19.304;2023-11-21T05:41:39;24.30;;;17.42;;
40162;SDS011;25881;47.462;19.304;2023-11-21T05:44:04;25.57;;;17.33;;
40162;SDS011;25881;47.462;19.304;2023-11-21T05:46:30;24.70;;;16.75;;
40162;SDS011;25881;47.462;19.304;2023-11-21T05:48:55;27.23;;;18.27;;
40162;SDS011;25881;47.462;19.304;2023-11-21T05:51:20;27.73;;;17.87;;
40162;SDS011;25881;47.462;19.304;2023-11-21T05:53:47;32.50;;;20.67;;
40162;SDS011;25881;47.462;19.304;2023-11-21T05:56:12;34.13;;;21.33;;
40162;SDS011;25881;47.462;19.304;2023-11-21T05:58:38;40.92;;;25.98;;
40162;SDS011;25881;47.462;19.304;2023-11-21T06:01:05;40.25;;;26.33;;
40162;SDS011;25881;47.462;19.304;2023-11-21T06:03:31;44.47;;;25.77;;
40162;SDS011;25881;47.462;19.304;2023-11-21T06:05:56;41.20;;;27.00;;
40162;SDS011;25881;47.462;19.304;2023-11-21T06:08:21;41.63;;;26.57;;
40162;SDS011;25881;47.462;19.304;2023-11-21T06:10:47;43.07;;;27.57;;
40162;SDS011;25881;47.462;19.304;2023-11-21T06:13:14;42.42;;;27.85;;
40162;SDS011;25881;47.462;19.304;2023-11-21T06:15:39;42.85;;;28.42;;
40162;SDS011;25881;47.462;19.304;2023-11-21T06:18:04;41.83;;;26.23;;
40162;SDS011;25881;47.462;19.304;2023-11-21T06:20:34;43.88;;;25.63;;
40162;SDS011;25881;47.462;19.304;2023-11-21T06:23:02;40.72;;;27.40;;
40162;SDS011;25881;47.462;19.304;2023-11-21T06:25:28;35.33;;;25.20;;
40162;SDS011;25881;47.462;19.304;2023-11-21T06:27:53;35.40;;;24.73;;
40162;SDS011;25881;47.462;19.304;2023-11-21T06:30:19;47.75;;;24.00;;
40162;SDS011;25881;47.462;19.304;2023-11-21T06:32:44;36.75;;;25.73;;
40162;SDS011;25881;47.462;19.304;2023-11-21T06:35:10;38.92;;;25.92;;
40162;SDS011;25881;47.462;19.304;2023-11-21T06:37:36;39.67;;;25.33;;
40162;SDS011;25881;47.462;19.304;2023-11-21T06:40:01;35.97;;;24.75;;
40162;SDS011;25881;47.462;19.304;2023-11-21T06:42:29;36.75;;;28.73;;
40162;SDS011;25881;47.462;19.304;2023-11-21T06:44:54;43.38;;;27.38;;
40162;SDS011;25881;47.462;19.304;2023-11-21T06:47:22;37.85;;;26.58;;
40162;SDS011;25881;47.462;19.304;2023-11-21T06:49:50;39.63;;;28.90;;
40162;SDS011;25881;47.462;19.304;2023-11-21T06:52:15;38.30;;;27.60;;
40162;SDS011;25881;47.462;19.304;2023-11-21T06:54:40;34.70;;;25.00;;
40162;SDS011;25881;47.462;19.304;2023-11-21T06:57:06;34.90;;;26.30;;
40162;SDS011;25881;47.462;19.304;2023-11-21T06:59:31;37.57;;;27.30;;
40162;SDS011;25881;47.462;19.304;2023-11-21T07:01:56;47.35;;;25.70;;
40162;SDS011;25881;47.462;19.304;2023-11-21T07:04:22;39.53;;;24.48;;
40162;SDS011;25881;47.462;19.304;2023-11-21T07:06:47;37.93;;;26.57;;
40162;SDS011;25881;47.462;19.304;2023-11-21T07:09:12;44.63;;;29.73;;
40162;SDS011;25881;47.462;19.304;2023-11-21T07:11:38;40.67;;;26.92;;
40162;SDS011;25881;47.462;19.304;2023-11-21T07:14:03;36.58;;;24.95;;
40162;SDS011;25881;47.462;19.304;2023-11-21T07:16:33;59.95;;;38.95;;
40162;SDS011;25881;47.462;19.304;2023-11-21T07:18:59;41.87;;;28.70;;
40162;SDS011;25881;47.462;19.304;2023-11-21T07:21:25;48.33;;;29.30;;
40162;SDS011;25881;47.462;19.304;2023-11-21T07:23:50;53.45;;;33.08;;
40162;SDS011;25881;47.462;19.304;2023-11-21T07:26:15;39.20;;;27.27;;
40162;SDS011;25881;47.462;19.304;2023-11-21T07:28:40;41.67;;;26.20;;
40162;SDS011;25881;47.462;19.304;2023-11-21T07:31:06;43.43;;;27.30;;
40162;SDS011;25881;47.462;19.304;2023-11-21T07:33:31;44.23;;;32.50;;
40162;SDS011;25881;47.462;19.304;2023-11-21T07:35:56;39.93;;;31.00;;
40162;SDS011;25881;47.462;19.304;2023-11-21T07:38:21;44.87;;;29.77;;
40162;SDS011;25881;47.462;19.304;2023-11-21T07:40:46;35.27;;;25.00;;
40162;SDS011;25881;47.462;19.304;2023-11-21T07:43:12;35.83;;;20.50;;
40162;SDS011;25881;47.462;19.304;2023-11-21T07:45:37;37.85;;;21.10;;
40162;SDS011;25881;47.462;19.304;2023-11-21T07:48:02;40.47;;;22.63;;
40162;SDS011;25881;47.462;19.304;2023-11-21T07:50:30;49.63;;;28.35;;
40162;SDS011;25881;47.462;19.304;2023-11-21T07:52:55;44.72;;;27.48;;
40162;SDS011;25881;47.462;19.304;2023-11-21T07:55:20;37.95;;;22.65;;
40162;SDS011;25881;47.462;19.304;2023-11-21T07:57:46;35.35;;;22.77;;
40162;SDS011;25881;47.462;19.304;2023-11-21T08:00:11;34.57;;;24.20;;
40162;SDS011;25881;47.462;19.304;2023-11-21T08:02:37;39.95;;;22.38;;
40162;SDS011;25881;47.462;19.304;2023-11-21T08:05:03;35.10;;;22.02;;
40162;SDS011;25881;47.462;19.304;2023-11-21T08:07:28;35.53;;;21.63;;
40162;SDS011;25881;47.462;19.304;2023-11-21T08:09:53;33.58;;;21.05;;
40162;SDS011;25881;47.462;19.304;2023-11-21T08:12:18;37.75;;;24.13;;
40162;SDS011;25881;47.462;19.304;2023-11-21T08:14:45;32.17;;;23.05;;
40162;SDS011;25881;47.462;19.304;2023-11-21T08:17:10;41.33;;;26.10;;
40162;SDS011;25881;47.462;19.304;2023-11-21T08:19:35;39.53;;;25.83;;
40162;SDS011;25881;47.462;19.304;2023-11-21T08:22:01;37.85;;;24.13;;
40162;SDS011;25881;47.462;19.304;2023-11-21T08:24:27;42.05;;;23.85;;
40162;SDS011;25881;47.462;19.304;2023-11-21T08:26:52;39.00;;;23.65;;
40162;SDS011;25881;47.462;19.304;2023-11-21T08:29:19;31.75;;;22.30;;
40162;SDS011;25881;47.462;19.304;2023-11-21T08:31:44;33.17;;;21.77;;
40162;SDS011;25881;47.462;19.304;2023-11-21T08:34:11;37.70;;;24.13;;
40162;SDS011;25881;47.462;19.304;2023-11-21T08:36:40;39.08;;;25.33;;
40162;SDS011;25881;47.462;19.304;2023-11-21T08:39:06;40.33;;;23.90;;
40162;SDS011;25881;47.462;19.304;2023-11-21T08:41:31;37.83;;;21.07;;
40162;SDS011;25881;47.462;19.304;2023-11-21T08:43:56;33.83;;;20.20;;
40162;SDS011;25881;47.462;19.304;2023-11-21T08:46:23;32.65;;;19.23;;
40162;SDS011;25881;47.462;19.304;2023-11-21T08:48:50;28.88;;;16.60;;
40162;SDS011;25881;47.462;19.304;2023-11-21T08:51:17;27.48;;;19.50;;
40162;SDS011;25881;47.462;19.304;2023-11-21T08:53:42;32.53;;;18.27;;
40162;SDS011;25881;47.462;19.304;2023-11-21T08:56:08;33.00;;;17.83;;
40162;SDS011;25881;47.462;19.304;2023-11-21T08:58:36;28.85;;;19.50;;
40162;SDS011;25881;47.462;19.304;2023-11-21T09:01:02;31.90;;;18.92;;
40162;SDS011;25881;47.462;19.304;2023-11-21T09:03:27;36.53;;;20.25;;
40162;SDS011;25881;47.462;19.304;2023-11-21T09:05:53;36.25;;;21.92;;
40162;SDS011;25881;47.462;19.304;2023-11-21T09:08:18;53.53;;;28.93;;
40162;SDS011;25881;47.462;19.304;2023-11-21T09:10:44;47.60;;;27.70;;
40162;SDS011;25881;47.462;19.304;2023-11-21T09:13:12;44.60;;;25.77;;
40162;SDS011;25881;47.462;19.304;2023-11-21T09:15:37;39.20;;;25.15;;
40162;SDS011;25881;47.462;19.304;2023-11-21T09:18:02;39.07;;;24.27;;
40162;SDS011;25881;47.462;19.304;2023-11-21T09:20:28;40.53;;;27.10;;
40162;SDS011;25881;47.462;19.304;2023-11-21T09:22:53;37.50;;;25.02;;
40162;SDS011;25881;47.462;19.304;2023-11-21T09:25:19;46.00;;;25.83;;
40162;SDS011;25881;47.462;19.304;2023-11-21T09:27:46;43.35;;;26.27;;
40162;SDS011;25881;47.462;19.304;2023-11-21T09:30:12;38.33;;;26.08;;
40162;SDS011;25881;47.462;19.304;2023-11-21T09:32:39;36.83;;;25.17;;
40162;SDS011;25881;47.462;19.304;2023-11-21T09:35:05;40.17;;;24.42;;
40162;SDS011;25881;47.462;19.304;2023-11-21T09:37:33;33.60;;;23.45;;
40162;SDS011;25881;47.462;19.304;2023-11-21T09:39:58;38.63;;;24.48;;
40162;SDS011;25881;47.462;19.304;2023-11-21T09:42:25;46.30;;;26.17;;
40162;SDS011;25881;47.462;19.304;2023-11-21T09:45:06;55.15;;;29.30;;
40162;SDS011;25881;47.462;19.304;2023-11-21T09:47:33;51.83;;;30.45;;
40162;SDS011;25881;47.462;19.304;2023-11-21T09:50:01;42.03;;;27.20;;
40162;SDS011;25881;47.462;19.304;2023-11-21T09:52:27;38.65;;;24.95;;
40162;SDS011;25881;47.462;19.304;2023-11-21T09:54:52;41.95;;;22.08;;
40162;SDS011;25881;47.462;19.304;2023-11-21T09:57:19;40.97;;;22.98;;
40162;SDS011;25881;47.462;19.304;2023-11-21T09:59:46;38.67;;;22.38;;
40162;SDS011;25881;47.462;19.304;2023-11-21T10:02:11;32.38;;;20.88;;
40162;SDS011;25881;47.462;19.304;2023-11-21T10:04:38;38.17;;;21.33;;
40162;SDS011;25881;47.462;19.304;2023-11-21T10:07:04;35.45;;;21.20;;
40162;SDS011;25881;47.462;19.304;2023-11-21T10:09:34;32.60;;;18.52;;
40162;SDS011;25881;47.462;19.304;2023-11-21T10:11:59;29.88;;;17.13;;
40162;SDS011;25881;47.462;19.304;2023-11-21T10:14:25;26.33;;;17.08;;
40162;SDS011;25881;47.462;19.304;2023-11-21T10:16:53;31.45;;;18.70;;
40162;SDS011;25881;47.462;19.304;2023-11-21T10:19:19;40.53;;;18.83;;
40162;SDS011;25881;47.462;19.304;2023-11-21T10:21:46;29.50;;;17.52;;
40162;SDS011;25881;47.462;19.304;2023-11-21T10:24:11;29.53;;;17.27;;
40162;SDS011;25881;47.462;19.304;2023-11-21T10:26:37;29.05;;;18.63;;
40162;SDS011;25881;47.462;19.304;2023-11-21T10:29:03;29.02;;;16.95;;
40162;SDS011;25881;47.462;19.304;2023-11-21T10:31:29;26.17;;;16.87;;
40162;SDS011;25881;47.462;19.304;2023-11-21T10:33:55;28.70;;;15.57;;
40162;SDS011;25881;47.462;19.304;2023-11-21T10:36:25;30.65;;;17.63;;
40162;SDS011;25881;47.462;19.304;2023-11-21T10:38:51;29.98;;;18.67;;
40162;SDS011;25881;47.462;19.304;2023-11-21T10:41:18;30.83;;;19.23;;
40162;SDS011;25881;47.462;19.304;2023-11-21T10:43:43;35.22;;;20.67;;
40162;SDS011;25881;47.462;19.304;2023-11-21T10:46:08;34.13;;;19.20;;
40162;SDS011;25881;47.462;19.304;2023-11-21T10:48:34;34.43;;;21.07;;
40162;SDS011;25881;47.462;19.304;2023-11-21T10:51:09;31.75;;;20.50;;
40162;SDS011;25881;47.462;19.304;2023-11-21T10:53:38;31.88;;;21.75;;
40162;SDS011;25881;47.462;19.304;2023-11-21T10:56:05;37.30;;;21.65;;
40162;SDS011;25881;47.462;19.304;2023-11-21T10:58:32;40.97;;;22.83;;
40162;SDS011;25881;47.462;19.304;2023-11-21T11:00:58;43.25;;;23.13;;
40162;SDS011;25881;47.462;19.304;2023-11-21T11:03:23;39.35;;;23.17;;
40162;SDS011;25881;47.462;19.304;2023-11-21T11:05:49;44.05;;;23.27;;
40162;SDS011;25881;47.462;19.304;2023-11-21T11:08:16;38.50;;;22.92;;
40162;SDS011;25881;47.462;19.304;2023-11-21T11:10:44;42.53;;;26.85;;
40162;SDS011;25881;47.462;19.304;2023-11-21T11:13:11;48.70;;;28.63;;
40162;SDS011;25881;47.462;19.304;2023-11-21T11:15:39;105.95;;;64.85;;
40162;SDS011;25881;47.462;19.304;2023-11-21T11:18:04;82.45;;;57.28;;
40162;SDS011;25881;47.462;19.304;2023-11-21T11:20:34;65.78;;;48.80;;
40162;SDS011;25881;47.462;19.304;2023-11-21T11:33:19;49.40;;;32.38;;
40162;SDS011;25881;47.462;19.304;2023-11-21T11:35:52;52.15;;;32.80;;
40162;SDS011;25881;47.462;19.304;2023-11-21T11:38:21;48.47;;;31.42;;
40162;SDS011;25881;47.462;19.304;2023-11-21T11:40:46;44.20;;;29.33;;
40162;SDS011;25881;47.462;19.304;2023-11-21T11:43:12;45.35;;;30.92;;
40162;SDS011;25881;47.462;19.304;2023-11-21T11:45:37;49.58;;;32.30;;
40162;SDS011;25881;47.462;19.304;2023-11-21T11:48:11;52.60;;;32.35;;
40162;SDS011;25881;47.462;19.304;2023-11-21T11:50:41;50.45;;;32.47;;
40162;SDS011;25881;47.462;19.304;2023-11-21T11:53:13;53.03;;;33.72;;
40162;SDS011;25881;47.462;19.304;2023-11-21T11:55:39;48.90;;;34.92;;
40162;SDS011;25881;47.462;19.304;2023-11-21T11:58:05;47.30;;;30.67;;
40162;SDS011;25881;47.462;19.304;2023-11-21T12:00:34;49.63;;;32.60;;
40162;SDS011;25881;47.462;19.304;2023-11-21T12:03:02;55.88;;;34.97;;
40162;SDS011;25881;47.462;19.304;2023-11-21T12:05:29;55.90;;;35.10;;
40162;SDS011;25881;47.462;19.304;2023-11-21T12:10:23;55.17;;;33.42;;
40162;SDS011;25881;47.462;19.304;2023-11-21T12:12:59;46.95;;;30.45;;
40162;SDS011;25881;47.462;19.304;2023-11-21T12:15:27;50.78;;;28.80;;
40162;SDS011;25881;47.462;19.304;2023-11-21T12:17:56;54.00;;;28.67;;
40162;SDS011;25881;47.462;19.304;2023-11-21T12:20:22;55.35;;;30.38;;
40162;SDS011;25881;47.462;19.304;2023-11-21T12:22:48;64.45;;;30.65;;
40162;SDS011;25881;47.462;19.304;2023-11-21T12:25:17;51.60;;;28.58;;
40162;SDS011;25881;47.462;19.304;2023-11-21T12:27:44;39.63;;;24.65;;
40162;SDS011;25881;47.462;19.304;2023-11-21T12:30:14;45.30;;;25.92;;
40162;SDS011;25881;47.462;19.304;2023-11-21T12:32:40;43.78;;;26.45;;
40162;SDS011;25881;47.462;19.304;2023-11-21T12:35:06;45.60;;;28.15;;
40162;SDS011;25881;47.462;19.304;2023-11-21T12:37:32;56.78;;;30.70;;
40162;SDS011;25881;47.462;19.304;2023-11-21T12:39:57;46.35;;;29.60;;
40162;SDS011;25881;47.462;19.304;2023-11-21T12:42:23;49.67;;;33.43;;
40162;SDS011;25881;47.462;19.304;2023-11-21T12:44:48;51.85;;;33.25;;
40162;SDS011;25881;47.462;19.304;2023-11-21T12:47:16;50.30;;;32.37;;
40162;SDS011;25881;47.462;19.304;2023-11-21T12:49:41;50.83;;;33.63;;
40162;SDS011;25881;47.462;19.304;2023-11-21T12:52:09;52.63;;;34.05;;
40162;SDS011;25881;47.462;19.304;2023-11-21T12:54:34;55.08;;;31.25;;
40162;SDS011;25881;47.462;19.304;2023-11-21T12:57:00;44.17;;;29.67;;
40162;SDS011;25881;47.462;19.304;2023-11-21T12:59:26;50.85;;;28.38;;
40162;SDS011;25881;47.462;19.304;2023-11-21T13:01:51;53.50;;;29.27;;
40162;SDS011;25881;47.462;19.304;2023-11-21T13:04:28;40.58;;;26.08;;
40162;SDS011;25881;47.462;19.304;2023-11-21T13:06:54;43.13;;;26.40;;
40162;SDS011;25881;47.462;19.304;2023-11-21T13:09:20;46.40;;;27.33;;
40162;SDS011;25881;47.462;19.304;2023-11-21T13:11:46;38.63;;;24.65;;
40162;SDS011;25881;47.462;19.304;2023-11-21T13:14:11;40.90;;;25.77;;
40162;SDS011;25881;47.462;19.304;2023-11-21T13:16:37;48.22;;;28.17;;
40162;SDS011;25881;47.462;19.304;2023-11-21T13:19:04;38.90;;;24.08;;
40162;SDS011;25881;47.462;19.304;2023-11-21T13:21:29;37.65;;;25.35;;
40162;SDS011;25881;47.462;19.304;2023-11-21T13:23:54;39.90;;;25.70;;
40162;SDS011;25881;47.462;19.304;2023-11-21T13:26:21;39.83;;;25.23;;
40162;SDS011;25881;47.462;19.304;2023-11-21T13:28:48;39.88;;;25.75;;
40162;SDS011;25881;47.462;19.304;2023-11-21T13:31:13;42.00;;;26.80;;
40162;SDS011;25881;47.462;19.304;2023-11-21T13:33:51;43.53;;;25.42;;
40162;SDS011;25881;47.462;19.304;2023-11-21T13:36:23;40.45;;;24.95;;
40162;SDS011;25881;47.462;19.304;2023-11-21T13:38:49;42.95;;;27.58;;
40162;SDS011;25881;47.462;19.304;2023-11-21T13:41:14;48.85;;;29.08;;
40162;SDS011;25881;47.462;19.304;2023-11-21T13:43:40;54.05;;;34.67;;
40162;SDS011;25881;47.462;19.304;2023-11-21T13:46:08;157.50;;;93.03;;
40162;SDS011;25881;47.462;19.304;2023-11-21T13:48:41;110.15;;;67.25;;
40162;SDS011;25881;47.462;19.304;2023-11-21T13:51:15;96.28;;;58.80;;
40162;SDS011;25881;47.462;19.304;2023-11-21T13:53:42;70.93;;;44.47;;
40162;SDS011;25881;47.462;19.304;2023-11-21T13:56:08;58.85;;;36.58;;
40162;SDS011;25881;47.462;19.304;2023-11-21T13:58:34;56.30;;;34.63;;
40162;SDS011;25881;47.462;19.304;2023-11-21T14:01:17;50.80;;;31.63;;
40162;SDS011;25881;47.462;19.304;2023-11-21T14:04:01;45.40;;;30.13;;
40162;SDS011;25881;47.462;19.304;2023-11-21T14:06:48;50.22;;;31.15;;
40162;SDS011;25881;47.462;19.304;2023-11-21T14:09:18;47.95;;;30.95;;
40162;SDS011;25881;47.462;19.304;2023-11-21T14:11:57;45.78;;;33.10;;
40162;SDS011;25881;47.462;19.304;2023-11-21T14:14:26;49.38;;;33.15;;
40162;SDS011;25881;47.462;19.304;2023-11-21T14:16:52;50.42;;;32.47;;
40162;SDS011;25881;47.462;19.304;2023-11-21T14:19:18;47.72;;;31.55;;